sensor_id;sensor_type;location;lat;lon;timestamp;temperature;humidity
4874;DHT22;2451;49.970;9.068;2024-03-23T00:55:42;8.60;99.90
4874;DHT22;2451;49.970;9.068;2024-03-23T00:58:08;8.50;99.90
4874;DHT22;2451;49.970;9.068;2024-03-23T01:00:34;8.50;99.90
4874;DHT22;2451;49.970;9.068;2024-03-23T01:02:59;8.50;99.90
4874;DHT22;2451;49.970;9.068;2024-03-23T01:05:25;8.50;99.90
4874;DHT22;2451;49.970;9.068;2024-03-23T01:07:50;8.50;99.90
4874;DHT22;2451;49.970;9.068;2024-03-23T01:10:16;8.50;99.90
4874;DHT22;2451;49.970;9.068;2024-03-23T01:12:42;8.50;99.90
4874;DHT22;2451;49.970;9.068;2024-03-23T01:15:07;8.50;99.90
4874;DHT22;2451;49.970;9.068;2024-03-23T01:17:33;8.60;99.90
4874;DHT22;2451;49.970;9.068;2024-03-23T01:19:58;8.50;99.90
4874;DHT22;2451;49.970;9.068;2024-03-23T01:22:24;8.50;99.90
4874;DHT22;2451;49.970;9.068;2024-03-23T01:24:49;8.50;99.90
4874;DHT22;2451;49.970;9.068;2024-03-23T01:27:15;8.60;99.90
4874;DHT22;2451;49.970;9.068;2024-03-23T01:29:40;8.60;99.90
4874;DHT22;2451;49.970;9.068;2024-03-23T01:32:06;8.60;99.90
4874;DHT22;2451;49.970;9.068;2024-03-23T01:34:32;8.60;99.90
4874;DHT22;2451;49.970;9.068;2024-03-23T01:36:58;8.60;99.90
4874;DHT22;2451;49.970;9.068;2024-03-23T01:39:24;8.60;99.90
4874;DHT22;2451;49.970;9.068;2024-03-23T01:41:49;8.70;99.90
4874;DHT22;2451;49.970;9.068;2024-03-23T01:44:15;8.70;99.90
4874;DHT22;2451;49.970;9.068;2024-03-23T01:46:41;8.70;99.90
4874;DHT22;2451;49.970;9.068;2024-03-23T01:49:08;8.70;99.90
4874;DHT22;2451;49.970;9.068;2024-03-23T01:51:33;8.70;99.90
4874;DHT22;2451;49.970;9.068;2024-03-23T01:54:00;8.70;99.90
4874;DHT22;2451;49.970;9.068;2024-03-23T01:56:31;8.60;99.90
4874;DHT22;2451;49.970;9.068;2024-03-23T01:58:59;8.70;99.90
4874;DHT22;2451;49.970;9.068;2024-03-23T02:01:24;8.70;99.90
4874;DHT22;2451;49.970;9.068;2024-03-23T02:03:50;8.70;99.90
4874;DHT22;2451;49.970;9.068;2024-03-23T02:06:16;8.80;99.90
4874;DHT22;2451;49.970;9.068;2024-03-23T02:08:42;8.80;99.90
4874;DHT22;2451;49.970;9.068;2024-03-23T02:11:08;8.80;99.90
4874;DHT22;2451;49.970;9.068;2024-03-23T02:13:34;8.90;99.90
4874;DHT22;2451;49.970;9.068;2024-03-23T02:15:59;8.90;99.90
4874;DHT22;2451;49.970;9.068;2024-03-23T02:18:25;8.90;99.90
4874;DHT22;2451;49.970;9.068;2024-03-23T02:20:50;8.90;99.90
4874;DHT22;2451;49.970;9.068;2024-03-23T02:23:16;8.90;99.90
4874;DHT22;2451;49.970;9.068;2024-03-23T02:25:43;8.90;99.90
4874;DHT22;2451;49.970;9.068;2024-03-23T02:28:09;9.00;99.90
4874;DHT22;2451;49.970;9.068;2024-03-23T02:30:34;9.00;99.90
4874;DHT22;2451;49.970;9.068;2024-03-23T02:33:00;9.00;99.90
4874;DHT22;2451;49.970;9.068;2024-03-23T02:35:25;9.00;99.90
4874;DHT22;2451;49.970;9.068;2024-03-23T02:37:51;8.90;99.90
4874;DHT22;2451;49.970;9.068;2024-03-23T02:40:17;8.90;99.90
4874;DHT22;2451;49.970;9.068;2024-03-23T02:42:42;8.90;99.90
4874;DHT22;2451;49.970;9.068;2024-03-23T02:45:08;8.90;99.90
4874;DHT22;2451;49.970;9.068;2024-03-23T02:47:34;8.90;99.90
4874;DHT22;2451;49.970;9.068;2024-03-23T02:50:00;8.90;99.90
4874;DHT22;2451;49.970;9.068;2024-03-23T02:52:25;8.90;99.90
4874;DHT22;2451;49.970;9.068;2024-03-23T02:54:51;8.80;99.90
4874;DHT22;2451;49.970;9.068;2024-03-23T02:57:17;8.80;99.90
4874;DHT22;2451;49.970;9.068;2024-03-23T02:59:42;8.80;99.90
4874;DHT22;2451;49.970;9.068;2024-03-23T03:02:08;8.90;99.90
4874;DHT22;2451;49.970;9.068;2024-03-23T03:04:33;8.80;99.90
4874;DHT22;2451;49.970;9.068;2024-03-23T03:06:59;8.80;99.90
4874;DHT22;2451;49.970;9.068;2024-03-23T03:09:25;8.80;99.90
4874;DHT22;2451;49.970;9.068;2024-03-23T03:11:50;8.80;99.90
4874;DHT22;2451;49.970;9.068;2024-03-23T03:14:16;8.80;99.90
4874;DHT22;2451;49.970;9.068;2024-03-23T03:16:41;8.80;99.90
4874;DHT22;2451;49.970;9.068;2024-03-23T03:19:07;8.90;99.90
4874;DHT22;2451;49.970;9.068;2024-03-23T03:21:32;8.90;99.90
4874;DHT22;2451;49.970;9.068;2024-03-23T03:23:58;8.90;99.90
4874;DHT22;2451;49.970;9.068;2024-03-23T03:26:23;8.90;99.90
4874;DHT22;2451;49.970;9.068;2024-03-23T03:28:50;8.90;99.90
4874;DHT22;2451;49.970;9.068;2024-03-23T03:31:16;8.90;99.90
4874;DHT22;2451;49.970;9.068;2024-03-23T03:33:42;8.90;99.90
4874;DHT22;2451;49.970;9.068;2024-03-23T03:36:07;8.90;99.90
4874;DHT22;2451;49.970;9.068;2024-03-23T03:38:33;8.90;99.90
4874;DHT22;2451;49.970;9.068;2024-03-23T03:41:01;8.90;99.90
4874;DHT22;2451;49.970;9.068;2024-03-23T03:43:26;8.90;99.90
4874;DHT22;2451;49.970;9.068;2024-03-23T03:45:53;8.90;99.90
4874;DHT22;2451;49.970;9.068;2024-03-23T03:48:19;8.90;99.90
4874;DHT22;2451;49.970;9.068;2024-03-23T03:50:44;8.90;99.90
4874;DHT22;2451;49.970;9.068;2024-03-23T03:53:10;8.80;99.90
4874;DHT22;2451;49.970;9.068;2024-03-23T03:55:35;8.80;99.90
4874;DHT22;2451;49.970;9.068;2024-03-23T03:58:01;8.80;99.90
4874;DHT22;2451;49.970;9.068;2024-03-23T04:00:26;8.80;99.90
4874;DHT22;2451;49.970;9.068;2024-03-23T04:02:52;8.70;99.90
4874;DHT22;2451;49.970;9.068;2024-03-23T04:05:17;8.80;99.90
4874;DHT22;2451;49.970;9.068;2024-03-23T04:07:44;8.80;99.90
4874;DHT22;2451;49.970;9.068;2024-03-23T04:10:10;8.80;99.90
4874;DHT22;2451;49.970;9.068;2024-03-23T04:12:35;8.80;99.90
4874;DHT22;2451;49.970;9.068;2024-03-23T04:15:01;8.90;99.90
4874;DHT22;2451;49.970;9.068;2024-03-23T04:17:29;8.90;99.90
4874;DHT22;2451;49.970;9.068;2024-03-23T04:19:57;9.00;99.90
4874;DHT22;2451;49.970;9.068;2024-03-23T04:22:23;9.00;99.90
4874;DHT22;2451;49.970;9.068;2024-03-23T04:24:50;9.00;99.90
4874;DHT22;2451;49.970;9.068;2024-03-23T04:27:15;9.10;99.90
4874;DHT22;2451;49.970;9.068;2024-03-23T04:29:40;9.10;99.90
4874;DHT22;2451;49.970;9.068;2024-03-23T04:32:06;9.10;99.90
4874;DHT22;2451;49.970;9.068;2024-03-23T04:34:32;9.20;99.90
4874;DHT22;2451;49.970;9.068;2024-03-23T04:36:58;9.10;99.90
4874;DHT22;2451;49.970;9.068;2024-03-23T04:39:24;9.20;99.90
4874;DHT22;2451;49.970;9.068;2024-03-23T04:41:49;9.10;99.90
4874;DHT22;2451;49.970;9.068;2024-03-23T04:44:15;9.20;99.90
4874;DHT22;2451;49.970;9.068;2024-03-23T04:46:40;9.20;99.90
4874;DHT22;2451;49.970;9.068;2024-03-23T04:49:06;9.20;99.90
4874;DHT22;2451;49.970;9.068;2024-03-23T04:51:37;9.20;99.90
4874;DHT22;2451;49.970;9.068;2024-03-23T04:54:03;9.30;99.90
4874;DHT22;2451;49.970;9.068;2024-03-23T04:56:29;9.20;99.90
4874;DHT22;2451;49.970;9.068;2024-03-23T04:58:56;9.20;99.90
4874;DHT22;2451;49.970;9.068;2024-03-23T05:01:26;9.40;99.90
4874;DHT22;2451;49.970;9.068;2024-03-23T05:03:52;9.60;99.90
4874;DHT22;2451;49.970;9.068;2024-03-23T05:06:18;9.60;99.90
4874;DHT22;2451;49.970;9.068;2024-03-23T05:08:44;9.50;99.90
4874;DHT22;2451;49.970;9.068;2024-03-23T05:11:09;9.50;99.90
4874;DHT22;2451;49.970;9.068;2024-03-23T05:13:35;9.40;99.90
4874;DHT22;2451;49.970;9.068;2024-03-23T05:16:01;9.30;99.90
4874;DHT22;2451;49.970;9.068;2024-03-23T05:18:26;9.30;99.90
4874;DHT22;2451;49.970;9.068;2024-03-23T05:20:57;9.20;99.90
4874;DHT22;2451;49.970;9.068;2024-03-23T05:23:23;9.20;99.90
4874;DHT22;2451;49.970;9.068;2024-03-23T05:25:49;9.10;99.90
4874;DHT22;2451;49.970;9.068;2024-03-23T05:28:14;9.00;99.90
4874;DHT22;2451;49.970;9.068;2024-03-23T05:30:40;8.80;99.90
4874;DHT22;2451;49.970;9.068;2024-03-23T05:33:05;8.80;99.90
4874;DHT22;2451;49.970;9.068;2024-03-23T05:35:31;8.70;99.90
4874;DHT22;2451;49.970;9.068;2024-03-23T05:37:57;8.60;99.90
4874;DHT22;2451;49.970;9.068;2024-03-23T05:40:25;8.60;99.90
4874;DHT22;2451;49.970;9.068;2024-03-23T05:42:51;8.50;99.90
4874;DHT22;2451;49.970;9.068;2024-03-23T05:45:19;8.40;99.90
4874;DHT22;2451;49.970;9.068;2024-03-23T05:47:44;8.30;99.90
4874;DHT22;2451;49.970;9.068;2024-03-23T05:50:10;8.20;99.90
4874;DHT22;2451;49.970;9.068;2024-03-23T05:52:38;8.10;99.90
4874;DHT22;2451;49.970;9.068;2024-03-23T05:55:04;8.10;99.90
4874;DHT22;2451;49.970;9.068;2024-03-23T05:57:30;8.00;99.90
4874;DHT22;2451;49.970;9.068;2024-03-23T05:59:55;8.00;99.90
4874;DHT22;2451;49.970;9.068;2024-03-23T06:02:21;7.90;99.90
4874;DHT22;2451;49.970;9.068;2024-03-23T06:04:47;7.80;99.90
4874;DHT22;2451;49.970;9.068;2024-03-23T06:07:12;7.80;99.90
4874;DHT22;2451;49.970;9.068;2024-03-23T06:09:40;7.70;99.90
4874;DHT22;2451;49.970;9.068;2024-03-23T06:12:06;7.70;99.90
4874;DHT22;2451;49.970;9.068;2024-03-23T06:14:31;7.70;99.90
4874;DHT22;2451;49.970;9.068;2024-03-23T06:16:58;7.70;99.90
4874;DHT22;2451;49.970;9.068;2024-03-23T06:19:24;7.60;99.90
4874;DHT22;2451;49.970;9.068;2024-03-23T06:21:52;7.60;99.90
4874;DHT22;2451;49.970;9.068;2024-03-23T06:24:18;7.60;99.90
4874;DHT22;2451;49.970;9.068;2024-03-23T06:26:43;7.60;99.90
4874;DHT22;2451;49.970;9.068;2024-03-23T06:29:09;7.60;99.90
4874;DHT22;2451;49.970;9.068;2024-03-23T06:31:34;7.60;99.90
4874;DHT22;2451;49.970;9.068;2024-03-23T06:34:00;7.50;99.90
4874;DHT22;2451;49.970;9.068;2024-03-23T06:36:27;7.50;99.90
4874;DHT22;2451;49.970;9.068;2024-03-23T06:38:52;7.50;99.90
4874;DHT22;2451;49.970;9.068;2024-03-23T06:41:19;7.50;99.90
4874;DHT22;2451;49.970;9.068;2024-03-23T06:43:44;7.50;99.90
4874;DHT22;2451;49.970;9.068;2024-03-23T06:46:10;7.50;99.90
4874;DHT22;2451;49.970;9.068;2024-03-23T06:48:35;7.50;99.90
4874;DHT22;2451;49.970;9.068;2024-03-23T06:51:01;7.60;99.90
4874;DHT22;2451;49.970;9.068;2024-03-23T06:53:26;7.60;99.90
4874;DHT22;2451;49.970;9.068;2024-03-23T06:55:53;7.50;99.90
4874;DHT22;2451;49.970;9.068;2024-03-23T06:58:23;7.50;99.90
4874;DHT22;2451;49.970;9.068;2024-03-23T07:00:49;7.50;99.90
4874;DHT22;2451;49.970;9.068;2024-03-23T07:03:16;7.60;99.90
4874;DHT22;2451;49.970;9.068;2024-03-23T07:05:41;7.50;99.90
4874;DHT22;2451;49.970;9.068;2024-03-23T07:08:07;7.50;99.90
4874;DHT22;2451;49.970;9.068;2024-03-23T07:10:33;7.60;99.90
4874;DHT22;2451;49.970;9.068;2024-03-23T07:12:59;7.50;99.90
4874;DHT22;2451;49.970;9.068;2024-03-23T07:15:24;7.50;99.90
4874;DHT22;2451;49.970;9.068;2024-03-23T07:17:50;7.50;99.90
4874;DHT22;2451;49.970;9.068;2024-03-23T07:20:15;7.50;99.90
4874;DHT22;2451;49.970;9.068;2024-03-23T07:22:41;7.50;99.90
4874;DHT22;2451;49.970;9.068;2024-03-23T07:25:07;7.50;99.90
4874;DHT22;2451;49.970;9.068;2024-03-23T07:27:33;7.50;99.90
4874;DHT22;2451;49.970;9.068;2024-03-23T07:29:59;7.60;99.90
4874;DHT22;2451;49.970;9.068;2024-03-23T07:32:26;7.60;99.90
4874;DHT22;2451;49.970;9.068;2024-03-23T07:34:52;7.60;99.90
4874;DHT22;2451;49.970;9.068;2024-03-23T07:37:18;7.70;99.90
4874;DHT22;2451;49.970;9.068;2024-03-23T07:39:43;7.70;99.90
4874;DHT22;2451;49.970;9.068;2024-03-23T07:42:09;7.70;99.90
4874;DHT22;2451;49.970;9.068;2024-03-23T07:44:35;7.70;99.90
4874;DHT22;2451;49.970;9.068;2024-03-23T07:47:01;7.70;99.90
4874;DHT22;2451;49.970;9.068;2024-03-23T07:49:27;7.60;99.90
4874;DHT22;2451;49.970;9.068;2024-03-23T07:51:53;7.60;99.90
4874;DHT22;2451;49.970;9.068;2024-03-23T07:54:18;7.60;99.90
4874;DHT22;2451;49.970;9.068;2024-03-23T07:56:44;7.50;99.90
4874;DHT22;2451;49.970;9.068;2024-03-23T07:59:09;7.40;99.90
4874;DHT22;2451;49.970;9.068;2024-03-23T08:01:36;7.30;99.90
4874;DHT22;2451;49.970;9.068;2024-03-23T08:04:02;7.30;99.90
4874;DHT22;2451;49.970;9.068;2024-03-23T08:06:27;7.30;99.90
4874;DHT22;2451;49.970;9.068;2024-03-23T08:08:54;7.40;99.90
4874;DHT22;2451;49.970;9.068;2024-03-23T08:11:27;7.50;99.90
4874;DHT22;2451;49.970;9.068;2024-03-23T08:13:53;7.50;99.90
4874;DHT22;2451;49.970;9.068;2024-03-23T08:16:18;7.60;99.90
4874;DHT22;2451;49.970;9.068;2024-03-23T08:18:44;7.60;99.90
4874;DHT22;2451;49.970;9.068;2024-03-23T08:21:10;7.70;99.90
4874;DHT22;2451;49.970;9.068;2024-03-23T08:23:36;7.60;99.90
4874;DHT22;2451;49.970;9.068;2024-03-23T08:26:08;7.60;99.90
4874;DHT22;2451;49.970;9.068;2024-03-23T08:28:34;7.60;99.90
4874;DHT22;2451;49.970;9.068;2024-03-23T08:31:07;7.60;99.90
4874;DHT22;2451;49.970;9.068;2024-03-23T08:33:33;7.60;99.90
4874;DHT22;2451;49.970;9.068;2024-03-23T08:36:00;7.60;99.90
4874;DHT22;2451;49.970;9.068;2024-03-23T08:38:27;7.60;99.90
4874;DHT22;2451;49.970;9.068;2024-03-23T08:43:28;7.80;99.90
4874;DHT22;2451;49.970;9.068;2024-03-23T08:46:12;7.90;99.90
4874;DHT22;2451;49.970;9.068;2024-03-23T08:48:43;7.90;99.90
4874;DHT22;2451;49.970;9.068;2024-03-23T08:51:11;7.90;99.90
4874;DHT22;2451;49.970;9.068;2024-03-23T08:53:38;7.90;99.90
4874;DHT22;2451;49.970;9.068;2024-03-23T08:56:05;7.90;99.90
4874;DHT22;2451;49.970;9.068;2024-03-23T08:58:32;8.00;99.90
4874;DHT22;2451;49.970;9.068;2024-03-23T09:01:04;8.20;99.90
4874;DHT22;2451;49.970;9.068;2024-03-23T09:03:30;8.60;99.90
4874;DHT22;2451;49.970;9.068;2024-03-23T09:05:56;8.80;99.90
4874;DHT22;2451;49.970;9.068;2024-03-23T09:08:23;8.80;99.90
4874;DHT22;2451;49.970;9.068;2024-03-23T09:10:49;9.00;99.90
4874;DHT22;2451;49.970;9.068;2024-03-23T09:13:14;9.40;99.90
4874;DHT22;2451;49.970;9.068;2024-03-23T09:15:51;9.70;99.90
4874;DHT22;2451;49.970;9.068;2024-03-23T09:18:19;9.90;99.90
4874;DHT22;2451;49.970;9.068;2024-03-23T09:20:45;10.30;99.90
4874;DHT22;2451;49.970;9.068;2024-03-23T09:23:10;10.50;99.90
4874;DHT22;2451;49.970;9.068;2024-03-23T09:25:37;10.60;99.90
4874;DHT22;2451;49.970;9.068;2024-03-23T09:28:03;10.70;99.90
4874;DHT22;2451;49.970;9.068;2024-03-23T09:30:29;10.80;99.90
4874;DHT22;2451;49.970;9.068;2024-03-23T09:32:54;11.20;99.90
4874;DHT22;2451;49.970;9.068;2024-03-23T09:35:20;11.30;99.90
4874;DHT22;2451;49.970;9.068;2024-03-23T09:37:45;11.40;99.90
4874;DHT22;2451;49.970;9.068;2024-03-23T09:40:11;11.80;99.90
4874;DHT22;2451;49.970;9.068;2024-03-23T09:42:37;11.90;99.90
4874;DHT22;2451;49.970;9.068;2024-03-23T09:45:05;11.80;99.90
4874;DHT22;2451;49.970;9.068;2024-03-23T09:47:32;11.40;99.90
4874;DHT22;2451;49.970;9.068;2024-03-23T09:49:59;11.70;99.90
4874;DHT22;2451;49.970;9.068;2024-03-23T09:52:24;11.90;99.90
4874;DHT22;2451;49.970;9.068;2024-03-23T09:54:50;11.80;99.90
4874;DHT22;2451;49.970;9.068;2024-03-23T09:57:15;11.60;99.90
4874;DHT22;2451;49.970;9.068;2024-03-23T09:59:41;11.50;99.90
4874;DHT22;2451;49.970;9.068;2024-03-23T10:02:07;11.90;99.90
4874;DHT22;2451;49.970;9.068;2024-03-23T10:04:42;11.90;99.90
4874;DHT22;2451;49.970;9.068;2024-03-23T10:07:19;12.30;99.90
4874;DHT22;2451;49.970;9.068;2024-03-23T10:09:45;12.80;99.90
4874;DHT22;2451;49.970;9.068;2024-03-23T10:12:14;13.00;99.90
4874;DHT22;2451;49.970;9.068;2024-03-23T10:14:40;13.50;99.90
4874;DHT22;2451;49.970;9.068;2024-03-23T10:17:16;13.70;99.30
4874;DHT22;2451;49.970;9.068;2024-03-23T10:19:49;13.40;99.00
4874;DHT22;2451;49.970;9.068;2024-03-23T10:22:18;13.10;99.40
4874;DHT22;2451;49.970;9.068;2024-03-23T10:24:44;12.90;99.10
4874;DHT22;2451;49.970;9.068;2024-03-23T10:27:09;12.50;99.70
4874;DHT22;2451;49.970;9.068;2024-03-23T10:29:35;12.70;99.60
4874;DHT22;2451;49.970;9.068;2024-03-23T10:32:14;13.30;99.90
4874;DHT22;2451;49.970;9.068;2024-03-23T10:34:40;13.80;99.50
4874;DHT22;2451;49.970;9.068;2024-03-23T10:37:07;13.10;98.20
4874;DHT22;2451;49.970;9.068;2024-03-23T10:39:40;12.90;98.80
4874;DHT22;2451;49.970;9.068;2024-03-23T10:42:09;12.60;98.30
4874;DHT22;2451;49.970;9.068;2024-03-23T10:44:38;12.30;98.00
4874;DHT22;2451;49.970;9.068;2024-03-23T10:47:04;12.10;98.50
4874;DHT22;2451;49.970;9.068;2024-03-23T10:49:34;11.90;98.70
4874;DHT22;2451;49.970;9.068;2024-03-23T10:52:03;11.50;99.80
4874;DHT22;2451;49.970;9.068;2024-03-23T10:54:33;12.00;99.90
4874;DHT22;2451;49.970;9.068;2024-03-23T10:59:34;11.70;99.30
4874;DHT22;2451;49.970;9.068;2024-03-23T11:02:02;11.70;99.90
4874;DHT22;2451;49.970;9.068;2024-03-23T11:04:35;11.40;99.90
4874;DHT22;2451;49.970;9.068;2024-03-23T11:07:02;11.20;99.90
4874;DHT22;2451;49.970;9.068;2024-03-23T11:09:41;11.00;99.90
4874;DHT22;2451;49.970;9.068;2024-03-23T11:14:57;10.80;99.90
4874;DHT22;2451;49.970;9.068;2024-03-23T11:17:25;10.60;99.90
4874;DHT22;2451;49.970;9.068;2024-03-23T11:20:00;10.40;99.90
4874;DHT22;2451;49.970;9.068;2024-03-23T11:22:39;10.10;99.90
4874;DHT22;2451;49.970;9.068;2024-03-23T11:25:16;10.00;99.90
4874;DHT22;2451;49.970;9.068;2024-03-23T11:27:44;9.80;99.90
4874;DHT22;2451;49.970;9.068;2024-03-23T11:30:17;10.30;99.90
4874;DHT22;2451;49.970;9.068;2024-03-23T11:32:47;10.80;99.90
4874;DHT22;2451;49.970;9.068;2024-03-23T11:35:32;11.20;99.90
4874;DHT22;2451;49.970;9.068;2024-03-23T11:38:14;11.40;99.90
4874;DHT22;2451;49.970;9.068;2024-03-23T11:40:41;10.80;99.90
4874;DHT22;2451;49.970;9.068;2024-03-23T11:43:15;10.40;99.90
4874;DHT22;2451;49.970;9.068;2024-03-23T11:45:42;10.70;99.90
4874;DHT22;2451;49.970;9.068;2024-03-23T11:48:12;10.80;99.90
4874;DHT22;2451;49.970;9.068;2024-03-23T11:50:38;10.80;99.90
4874;DHT22;2451;49.970;9.068;2024-03-23T11:53:16;10.60;99.90
4874;DHT22;2451;49.970;9.068;2024-03-23T11:55:46;10.60;99.90
4874;DHT22;2451;49.970;9.068;2024-03-23T11:58:13;10.60;99.90
4874;DHT22;2451;49.970;9.068;2024-03-23T12:00:39;10.30;99.90
4874;DHT22;2451;49.970;9.068;2024-03-23T12:03:05;9.80;99.90
4874;DHT22;2451;49.970;9.068;2024-03-23T12:05:32;9.90;99.90
4874;DHT22;2451;49.970;9.068;2024-03-23T12:08:17;10.00;99.90
4874;DHT22;2451;49.970;9.068;2024-03-23T12:10:48;10.20;99.90
4874;DHT22;2451;49.970;9.068;2024-03-23T12:13:18;10.30;99.90
4874;DHT22;2451;49.970;9.068;2024-03-23T12:15:49;10.40;99.90
4874;DHT22;2451;49.970;9.068;2024-03-23T12:18:15;10.40;99.90
4874;DHT22;2451;49.970;9.068;2024-03-23T12:20:41;10.30;99.90
4874;DHT22;2451;49.970;9.068;2024-03-23T12:23:12;10.20;99.90
4874;DHT22;2451;49.970;9.068;2024-03-23T12:25:39;10.90;99.90
4874;DHT22;2451;49.970;9.068;2024-03-23T12:28:05;11.30;99.90
4874;DHT22;2451;49.970;9.068;2024-03-23T12:30:35;11.90;99.90
4874;DHT22;2451;49.970;9.068;2024-03-23T12:33:02;12.00;99.70
4874;DHT22;2451;49.970;9.068;2024-03-23T12:35:28;12.10;99.90
4874;DHT22;2451;49.970;9.068;2024-03-23T12:37:54;12.50;99.90
4874;DHT22;2451;49.970;9.068;2024-03-23T12:40:19;12.80;99.40
4874;DHT22;2451;49.970;9.068;2024-03-23T12:42:45;13.40;97.80
4874;DHT22;2451;49.970;9.068;2024-03-23T12:45:10;13.90;98.80
4874;DHT22;2451;49.970;9.068;2024-03-23T12:47:36;14.00;95.60
4874;DHT22;2451;49.970;9.068;2024-03-23T12:50:02;13.60;94.70
4874;DHT22;2451;49.970;9.068;2024-03-23T12:52:27;13.60;95.90
4874;DHT22;2451;49.970;9.068;2024-03-23T12:54:56;14.10;96.40
4874;DHT22;2451;49.970;9.068;2024-03-23T12:57:25;14.20;94.70
4874;DHT22;2451;49.970;9.068;2024-03-23T12:59:54;14.30;93.20
4874;DHT22;2451;49.970;9.068;2024-03-23T13:02:20;14.10;91.70
4874;DHT22;2451;49.970;9.068;2024-03-23T13:04:49;14.20;91.40
4874;DHT22;2451;49.970;9.068;2024-03-23T13:07:15;14.20;91.00
4874;DHT22;2451;49.970;9.068;2024-03-23T13:09:40;14.20;89.70
4874;DHT22;2451;49.970;9.068;2024-03-23T13:12:06;13.90;90.00
4874;DHT22;2451;49.970;9.068;2024-03-23T13:14:32;13.60;91.90
4874;DHT22;2451;49.970;9.068;2024-03-23T13:16:57;13.70;90.70
4874;DHT22;2451;49.970;9.068;2024-03-23T13:19:23;13.50;91.00
4874;DHT22;2451;49.970;9.068;2024-03-23T13:21:53;13.10;90.80
4874;DHT22;2451;49.970;9.068;2024-03-23T13:24:22;13.10;90.10
4874;DHT22;2451;49.970;9.068;2024-03-23T13:26:49;12.90;90.60
4874;DHT22;2451;49.970;9.068;2024-03-23T13:29:15;12.90;91.40
4874;DHT22;2451;49.970;9.068;2024-03-23T13:31:40;12.80;91.90
4874;DHT22;2451;49.970;9.068;2024-03-23T13:34:06;12.30;93.00
4874;DHT22;2451;49.970;9.068;2024-03-23T13:36:32;12.10;94.20
4874;DHT22;2451;49.970;9.068;2024-03-23T13:38:57;11.80;96.10
4874;DHT22;2451;49.970;9.068;2024-03-23T13:41:24;11.00;98.80
4874;DHT22;2451;49.970;9.068;2024-03-23T13:43:52;10.60;99.90
4874;DHT22;2451;49.970;9.068;2024-03-23T13:46:18;10.20;99.90
4874;DHT22;2451;49.970;9.068;2024-03-23T13:48:47;9.90;99.90
4874;DHT22;2451;49.970;9.068;2024-03-23T13:51:12;9.50;99.90
4874;DHT22;2451;49.970;9.068;2024-03-23T13:53:38;9.00;99.90
4874;DHT22;2451;49.970;9.068;2024-03-23T13:56:04;8.80;99.90
4874;DHT22;2451;49.970;9.068;2024-03-23T13:58:30;8.20;99.90
4874;DHT22;2451;49.970;9.068;2024-03-23T14:00:57;7.90;99.90
4874;DHT22;2451;49.970;9.068;2024-03-23T14:03:26;7.50;99.90
4874;DHT22;2451;49.970;9.068;2024-03-23T14:05:58;7.20;99.90
4874;DHT22;2451;49.970;9.068;2024-03-23T14:08:26;7.00;99.90
4874;DHT22;2451;49.970;9.068;2024-03-23T14:10:53;6.90;99.90
4874;DHT22;2451;49.970;9.068;2024-03-23T14:13:18;6.80;99.90
4874;DHT22;2451;49.970;9.068;2024-03-23T14:15:44;7.00;99.90
4874;DHT22;2451;49.970;9.068;2024-03-23T14:18:09;7.00;99.90
4874;DHT22;2451;49.970;9.068;2024-03-23T14:20:35;7.10;99.90
4874;DHT22;2451;49.970;9.068;2024-03-23T14:23:01;7.20;99.90
4874;DHT22;2451;49.970;9.068;2024-03-23T14:25:26;7.40;99.90
4874;DHT22;2451;49.970;9.068;2024-03-23T14:27:54;8.10;99.90
4874;DHT22;2451;49.970;9.068;2024-03-23T14:30:20;8.70;99.90
4874;DHT22;2451;49.970;9.068;2024-03-23T14:32:46;9.10;99.90
4874;DHT22;2451;49.970;9.068;2024-03-23T14:35:12;9.50;99.90
4874;DHT22;2451;49.970;9.068;2024-03-23T14:37:37;9.80;99.90
4874;DHT22;2451;49.970;9.068;2024-03-23T14:40:04;10.00;99.90
4874;DHT22;2451;49.970;9.068;2024-03-23T14:42:29;10.30;99.90
4874;DHT22;2451;49.970;9.068;2024-03-23T14:44:56;10.50;99.90
4874;DHT22;2451;49.970;9.068;2024-03-23T14:47:22;10.80;99.90
4874;DHT22;2451;49.970;9.068;2024-03-23T14:49:47;10.90;99.90
4874;DHT22;2451;49.970;9.068;2024-03-23T14:52:15;11.00;99.90
4874;DHT22;2451;49.970;9.068;2024-03-23T14:54:41;11.10;99.90
4874;DHT22;2451;49.970;9.068;2024-03-23T14:57:07;10.90;99.90
4874;DHT22;2451;49.970;9.068;2024-03-23T14:59:34;10.50;99.90
4874;DHT22;2451;49.970;9.068;2024-03-23T15:02:00;10.20;99.90
4874;DHT22;2451;49.970;9.068;2024-03-23T15:04:26;9.90;99.90
4874;DHT22;2451;49.970;9.068;2024-03-23T15:06:52;9.50;99.90
4874;DHT22;2451;49.970;9.068;2024-03-23T15:09:17;9.40;99.90
4874;DHT22;2451;49.970;9.068;2024-03-23T15:11:43;9.50;99.90
4874;DHT22;2451;49.970;9.068;2024-03-23T15:14:09;9.70;99.90
4874;DHT22;2451;49.970;9.068;2024-03-23T15:16:37;10.20;99.90
4874;DHT22;2451;49.970;9.068;2024-03-23T15:19:03;10.40;99.90
4874;DHT22;2451;49.970;9.068;2024-03-23T15:21:31;10.60;99.90
4874;DHT22;2451;49.970;9.068;2024-03-23T15:23:57;10.80;99.90
4874;DHT22;2451;49.970;9.068;2024-03-23T15:26:23;10.80;99.90
4874;DHT22;2451;49.970;9.068;2024-03-23T15:28:49;11.00;99.90
4874;DHT22;2451;49.970;9.068;2024-03-23T15:31:27;11.10;99.90
4874;DHT22;2451;49.970;9.068;2024-03-23T15:33:54;11.20;99.90
4874;DHT22;2451;49.970;9.068;2024-03-23T15:36:20;11.30;99.90
4874;DHT22;2451;49.970;9.068;2024-03-23T15:38:49;11.30;99.90
4874;DHT22;2451;49.970;9.068;2024-03-23T15:41:14;11.20;99.90
4874;DHT22;2451;49.970;9.068;2024-03-23T15:43:40;11.40;99.90
4874;DHT22;2451;49.970;9.068;2024-03-23T15:46:06;11.40;99.90
4874;DHT22;2451;49.970;9.068;2024-03-23T15:48:34;11.40;99.90
4874;DHT22;2451;49.970;9.068;2024-03-23T15:51:04;11.40;99.90
4874;DHT22;2451;49.970;9.068;2024-03-23T15:53:30;11.40;99.90
4874;DHT22;2451;49.970;9.068;2024-03-23T15:55:56;11.30;99.90
4874;DHT22;2451;49.970;9.068;2024-03-23T15:58:23;11.20;99.90
4874;DHT22;2451;49.970;9.068;2024-03-23T16:03:26;10.60;99.90
4874;DHT22;2451;49.970;9.068;2024-03-23T16:05:57;10.40;99.90
4874;DHT22;2451;49.970;9.068;2024-03-23T16:08:23;10.20;99.90
4874;DHT22;2451;49.970;9.068;2024-03-23T16:10:52;10.00;99.90
4874;DHT22;2451;49.970;9.068;2024-03-23T16:13:19;9.80;99.90
4874;DHT22;2451;49.970;9.068;2024-03-23T16:16:01;9.60;99.90
4874;DHT22;2451;49.970;9.068;2024-03-23T16:18:37;9.40;99.90
4874;DHT22;2451;49.970;9.068;2024-03-23T16:21:08;9.10;99.90
4874;DHT22;2451;49.970;9.068;2024-03-23T16:23:37;8.80;99.90
4874;DHT22;2451;49.970;9.068;2024-03-23T16:26:03;8.40;99.90
4874;DHT22;2451;49.970;9.068;2024-03-23T16:28:30;8.10;99.90
4874;DHT22;2451;49.970;9.068;2024-03-23T16:33:21;7.80;99.90
4874;DHT22;2451;49.970;9.068;2024-03-23T16:36:04;7.70;99.90
4874;DHT22;2451;49.970;9.068;2024-03-23T16:38:36;7.70;99.90
4874;DHT22;2451;49.970;9.068;2024-03-23T16:41:04;7.70;99.90
4874;DHT22;2451;49.970;9.068;2024-03-23T16:43:30;7.70;99.90
4874;DHT22;2451;49.970;9.068;2024-03-23T16:46:01;7.60;99.90
4874;DHT22;2451;49.970;9.068;2024-03-23T16:48:27;7.50;99.90
4874;DHT22;2451;49.970;9.068;2024-03-23T16:50:58;7.50;99.90
4874;DHT22;2451;49.970;9.068;2024-03-23T16:53:24;7.30;99.90
4874;DHT22;2451;49.970;9.068;2024-03-23T16:55:58;7.10;99.90
4874;DHT22;2451;49.970;9.068;2024-03-23T16:58:31;7.10;99.90
4874;DHT22;2451;49.970;9.068;2024-03-23T17:01:06;7.10;99.90
4874;DHT22;2451;49.970;9.068;2024-03-23T17:03:38;7.00;99.90
4874;DHT22;2451;49.970;9.068;2024-03-23T17:06:05;6.90;99.90
4874;DHT22;2451;49.970;9.068;2024-03-23T17:08:34;6.90;99.90
4874;DHT22;2451;49.970;9.068;2024-03-23T17:11:03;6.90;99.90
4874;DHT22;2451;49.970;9.068;2024-03-23T17:13:31;6.80;99.90
4874;DHT22;2451;49.970;9.068;2024-03-23T17:15:57;6.80;99.90
4874;DHT22;2451;49.970;9.068;2024-03-23T17:18:23;6.80;99.90